Yasuj, Iran
Current Conditions -  °F | °C
As of 12:00 AM on Thursday 27 Nov 2014 (Local Time) from OISY Reporting Station
Clear Clear  
Wind Chill: -1°   Ceiling: Unl
Heat Index:   Visibility: 6mi
Dew Point: -4°   Wind: 7mph
Humidity: 65%   Direction: 130°SE
Pressure: 30.12"   Gusts: NA
Location:  30.67°N, 51.58°E
Report Text: OISY 262100Z 13006KT CAVOK 02/M04 Q1020
Loading
Personal Weather Stations






























Interactive Weather Map New forecast layout! Learn more

10-Day Weather Forecast

Advertisements
Track Severe Weather on mobile